Time;durP1;ratioP1;P1;durP2;ratioP2;P2;SDS_P1;SDS_P2;PMS_P1;PMS_P2;Temp;Humidity;BMP_temperature;BMP_pressure;BME280_temperature;BME280_humidity;BME280_pressure;Samples;Min_cycle;Max_cycle;Signal;HPM_P1;HPM_P2
2021/04/21 00:00:14;;;;;;;29.07;17.57;;;8.80;94.50;;;;;;4390608;32;20176;-63
2021/04/21 00:02:42;;;;;;;31.43;18.83;;;8.70;94.90;;;;;;4390669;32;20152;-62
2021/04/21 00:05:10;;;;;;;31.53;19.83;;;8.70;95.40;;;;;;4400406;32;20346;-63
2021/04/21 00:07:37;;;;;;;31.60;20.73;;;8.60;95.70;;;;;;4407074;32;20152;-60
2021/04/21 00:10:06;;;;;;;37.33;21.63;;;8.60;96.10;;;;;;4394702;32;20220;-65
2021/04/21 00:12:37;;;;;;;29.70;20.63;;;8.60;96.20;;;;;;4392181;32;20636;-62
2021/04/21 00:15:06;;;;;;;29.73;21.90;;;8.60;96.50;;;;;;4404809;32;20215;-61
2021/04/21 00:17:33;;;;;;;34.53;21.77;;;8.60;96.80;;;;;;4405384;32;20168;-64
2021/04/21 00:20:00;;;;;;;36.50;22.80;;;8.70;96.50;;;;;;4404762;32;20228;-63
2021/04/21 00:22:28;;;;;;;32.67;21.90;;;8.70;96.70;;;;;;4402184;32;20529;-62
2021/04/21 00:24:55;;;;;;;32.80;21.73;;;8.70;96.20;;;;;;4405322;32;20152;-63
2021/04/21 00:27:25;;;;;;;32.87;20.97;;;8.70;96.20;;;;;;4405204;32;20169;-60
2021/04/21 00:29:56;;;;;;;35.60;22.60;;;8.70;96.30;;;;;;4406558;32;20222;-62
2021/04/21 00:32:26;;;;;;;35.70;22.27;;;8.70;96.40;;;;;;4399577;32;20176;-63
2021/04/21 00:34:55;;;;;;;31.10;20.83;;;8.70;96.40;;;;;;4394946;32;20605;-63
2021/04/21 00:37:23;;;;;;;34.33;20.60;;;8.70;96.60;;;;;;4390881;32;20219;-63
2021/04/21 00:39:50;;;;;;;40.50;24.70;;;8.70;96.40;;;;;;4390000;32;20212;-62
2021/04/21 00:42:25;;;;;;;31.63;23.43;;;8.60;97.00;;;;;;4396972;32;20463;-64
2021/04/21 00:44:58;;;;;;;33.37;22.50;;;8.60;96.70;;;;;;4393912;32;20191;-65
2021/04/21 00:47:35;;;;;;;34.10;23.97;;;8.60;96.50;;;;;;4391720;32;20170;-61
2021/04/21 00:50:06;;;;;;;33.00;23.03;;;8.60;96.80;;;;;;4389653;32;20540;-63
2021/04/21 00:52:40;;;;;;;36.60;23.10;;;8.60;97.00;;;;;;4397472;32;20227;-65
2021/04/21 00:55:14;;;;;;;33.70;23.43;;;8.60;97.20;;;;;;4400312;32;20204;-62
2021/04/21 00:57:51;;;;;;;35.93;23.90;;;8.60;97.20;;;;;;4402161;32;20153;-60
2021/04/21 01:00:21;;;;;;;36.43;24.30;;;8.60;97.20;;;;;;4390493;32;20167;-62
2021/04/21 01:02:52;;;;;;;42.83;24.30;;;8.50;97.20;;;;;;4390428;32;20229;-63
2021/04/21 01:05:22;;;;;;;42.53;26.20;;;8.50;97.20;;;;;;4391863;32;20196;-63
2021/04/21 01:07:51;;;;;;;39.77;23.60;;;8.60;97.50;;;;;;4392692;32;20208;-65
2021/04/21 01:10:19;;;;;;;37.30;24.47;;;8.40;97.20;;;;;;4404929;32;20684;-63
2021/04/21 01:12:48;;;;;;;39.07;25.70;;;8.40;97.30;;;;;;4396974;32;20198;-64
2021/04/21 01:15:22;;;;;;;36.23;25.57;;;8.50;97.80;;;;;;4401839;32;20220;-63
2021/04/21 01:17:51;;;;;;;35.77;24.20;;;8.40;98.00;;;;;;4402077;32;20251;-61
2021/04/21 01:20:25;;;;;;;38.57;25.67;;;8.30;98.00;;;;;;4407548;32;20540;-61
2021/04/21 01:23:24;;;;;;;36.53;25.57;;;8.30;97.70;;;;;;4407771;32;20233;-64
2021/04/21 01:26:05;;;;;;;40.20;25.77;;;8.30;98.10;;;;;;4406109;32;20217;-63
2021/04/21 01:28:33;;;;;;;41.27;25.93;;;8.30;97.80;;;;;;4394852;32;20217;-60
2021/04/21 01:31:01;;;;;;;42.20;26.23;;;8.30;98.00;;;;;;4394035;32;20156;-61
2021/04/21 01:33:30;;;;;;;40.37;26.90;;;8.20;98.10;;;;;;4404329;32;20237;-62
2021/04/21 01:36:02;;;;;;;39.90;26.73;;;8.20;98.30;;;;;;4395305;32;20173;-62
2021/04/21 01:38:30;;;;;;;39.23;27.60;;;8.10;98.80;;;;;;4392529;32;20230;-62
2021/04/21 01:40:58;;;;;;;38.90;26.77;;;8.10;98.80;;;;;;4392189;32;20649;-64
2021/04/21 01:43:32;;;;;;;36.17;26.93;;;8.10;98.50;;;;;;4397806;32;20172;-60
2021/04/21 01:46:01;;;;;;;40.57;25.93;;;8.10;98.60;;;;;;4401975;32;20238;-61
2021/04/21 01:48:28;;;;;;;45.23;30.63;;;8.10;98.50;;;;;;4401657;32;20191;-62
2021/04/21 01:50:55;;;;;;;44.23;28.47;;;7.90;99.10;;;;;;4391839;32;20653;-63
2021/04/21 01:53:34;;;;;;;42.10;28.10;;;8.00;98.70;;;;;;4403037;32;20448;-62
2021/04/21 01:56:06;;;;;;;45.37;29.20;;;8.00;98.90;;;;;;4397714;32;20159;-61
2021/04/21 01:58:45;;;;;;;43.67;30.00;;;8.00;98.90;;;;;;4399366;32;20211;-62
2021/04/21 02:01:24;;;;;;;43.70;29.30;;;7.90;99.20;;;;;;4391937;32;20148;-60
2021/04/21 02:03:57;;;;;;;40.67;29.60;;;7.90;99.00;;;;;;4402642;32;20554;-61
2021/04/21 02:06:39;;;;;;;41.27;29.73;;;7.90;99.40;;;;;;4404319;32;20218;-60
2021/04/21 02:09:15;;;;;;;41.43;29.30;;;7.90;99.40;;;;;;4405501;32;20156;-60
2021/04/21 02:11:49;;;;;;;43.97;28.43;;;7.80;99.50;;;;;;4397146;32;20180;-60
2021/04/21 02:14:24;;;;;;;41.43;28.53;;;7.80;99.50;;;;;;4391663;32;20523;-64
2021/04/21 02:17:06;;;;;;;49.73;30.97;;;7.80;99.60;;;;;;4395388;32;20223;-64
2021/04/21 02:19:46;;;;;;;51.37;32.63;;;7.80;99.70;;;;;;4393217;32;20160;-61
2021/04/21 02:22:27;;;;;;;47.13;32.57;;;7.80;99.90;;;;;;4402579;32;20156;-62
2021/04/21 02:24:59;;;;;;;50.17;32.20;;;7.70;99.90;;;;;;4406567;32;20206;-61
2021/04/21 02:27:32;;;;;;;57.33;34.10;;;7.70;99.90;;;;;;4395720;32;20159;-61
2021/04/21 02:30:03;;;;;;;48.93;33.50;;;7.80;99.90;;;;;;4391238;32;20183;-63
2021/04/21 02:32:47;;;;;;;48.63;32.73;;;7.80;99.90;;;;;;4391632;32;20164;-62
2021/04/21 02:35:19;;;;;;;53.37;35.27;;;7.80;99.90;;;;;;4391335;32;20564;-61
2021/04/21 02:38:01;;;;;;;54.53;35.63;;;7.70;99.90;;;;;;4401668;32;20178;-61
2021/04/21 02:40:39;;;;;;;53.43;34.73;;;7.80;99.90;;;;;;4406243;32;20186;-60
2021/04/21 02:43:15;;;;;;;50.00;34.07;;;7.70;99.90;;;;;;4390799;32;20164;-64
2021/04/21 02:45:50;;;;;;;60.47;38.70;;;7.70;99.90;;;;;;4403514;32;20509;-60
2021/04/21 02:48:34;;;;;;;51.20;33.93;;;7.70;99.90;;;;;;4406221;32;20199;-60
2021/04/21 02:51:06;;;;;;;57.87;36.23;;;7.70;99.90;;;;;;4396106;32;20187;-60
2021/04/21 02:53:40;;;;;;;56.27;35.43;;;7.60;99.90;;;;;;4406601;32;20184;-60
2021/04/21 02:56:16;;;;;;;54.43;37.23;;;7.60;99.90;;;;;;4402032;32;20159;-60
2021/04/21 02:58:54;;;;;;;52.20;34.70;;;7.60;99.90;;;;;;4399747;32;20596;-62
2021/04/21 03:01:32;;;;;;;60.63;36.30;;;7.60;99.90;;;;;;4390613;32;20206;-60
2021/04/21 03:04:08;;;;;;;56.43;37.40;;;7.60;99.90;;;;;;4394049;32;20712;-62
2021/04/21 03:06:38;;;;;;;54.00;36.67;;;7.60;99.90;;;;;;4391222;32;20198;-62
2021/04/21 03:09:07;;;;;;;56.17;36.97;;;7.60;99.90;;;;;;4398376;32;20160;-60
2021/04/21 03:11:33;;;;;;;56.70;36.77;;;7.60;99.90;;;;;;4405754;32;20203;-63
2021/04/21 03:14:03;;;;;;;55.67;36.43;;;7.70;99.90;;;;;;4404389;32;20643;-62
2021/04/21 03:16:33;;;;;;;56.10;37.43;;;7.50;99.90;;;;;;4392546;32;20211;-62
2021/04/21 03:19:05;;;;;;;55.07;35.80;;;7.60;99.90;;;;;;4405744;32;20231;-61
2021/04/21 03:21:35;;;;;;;53.40;36.50;;;7.60;99.90;;;;;;4406375;32;20182;-64
2021/04/21 03:24:09;;;;;;;58.27;36.20;;;7.60;99.90;;;;;;4392082;32;20171;-64
2021/04/21 03:26:37;;;;;;;55.30;36.43;;;7.50;99.90;;;;;;4399754;32;20187;-61
2021/04/21 03:29:06;;;;;;;54.30;37.40;;;7.50;99.90;;;;;;4398836;32;20179;-62
2021/04/21 03:31:37;;;;;;;56.63;38.47;;;7.50;99.90;;;;;;4405638;32;20231;-62
2021/04/21 03:34:08;;;;;;;51.83;35.93;;;7.40;99.90;;;;;;4405592;32;20159;-62
2021/04/21 03:36:34;;;;;;;54.57;37.20;;;7.50;99.90;;;;;;4393141;32;20180;-63
2021/04/21 03:39:02;;;;;;;50.73;35.90;;;7.40;99.90;;;;;;4392534;32;20619;-60
2021/04/21 03:41:28;;;;;;;51.60;36.23;;;7.40;99.90;;;;;;4390425;32;20239;-60
2021/04/21 03:43:55;;;;;;;58.77;37.27;;;7.40;99.90;;;;;;4397865;32;20211;-61
2021/04/21 03:46:22;;;;;;;55.43;37.53;;;7.30;99.90;;;;;;4397107;32;20211;-61
2021/04/21 03:48:50;;;;;;;57.17;38.23;;;7.30;99.90;;;;;;4390907;32;20170;-60
2021/04/21 03:51:21;;;;;;;54.87;37.47;;;7.30;99.90;;;;;;4390199;32;20171;-62
2021/04/21 03:53:48;;;;;;;60.20;42.00;;;7.30;99.90;;;;;;4391266;32;20235;-60
2021/04/21 03:56:17;;;;;;;52.77;39.80;;;7.20;99.90;;;;;;4391859;32;20199;-60
2021/04/21 03:58:46;;;;;;;56.63;37.17;;;7.30;99.90;;;;;;4394341;32;20198;-63
2021/04/21 04:01:14;;;;;;;61.43;40.37;;;7.30;99.90;;;;;;4401321;32;20228;-61
2021/04/21 04:03:46;;;;;;;55.10;39.03;;;7.30;99.90;;;;;;4398275;32;20596;-60
2021/04/21 04:06:15;;;;;;;53.90;39.73;;;7.30;99.90;;;;;;4398564;32;20174;-64
2021/04/21 04:08:47;;;;;;;56.53;36.87;;;7.20;99.90;;;;;;4392134;32;20330;-61
2021/04/21 04:11:17;;;;;;;50.77;36.37;;;7.30;99.90;;;;;;4405122;32;20182;-61
2021/04/21 04:13:48;;;;;;;54.67;36.93;;;7.30;99.90;;;;;;4404834;32;20275;-65
2021/04/21 04:16:15;;;;;;;55.33;40.50;;;7.30;99.90;;;;;;4401043;32;20217;-64
2021/04/21 04:18:42;;;;;;;55.53;39.60;;;7.30;99.90;;;;;;4391372;32;20265;-60
2021/04/21 04:21:10;;;;;;;52.03;37.53;;;7.30;99.90;;;;;;4399819;32;20248;-63
2021/04/21 04:23:39;;;;;;;52.53;38.33;;;7.30;99.90;;;;;;4390044;32;20239;-61
2021/04/21 04:26:08;;;;;;;53.23;38.53;;;7.30;99.90;;;;;;4403473;32;20207;-61
2021/04/21 04:28:35;;;;;;;54.43;37.10;;;7.30;99.90;;;;;;4394363;32;20164;-61
2021/04/21 04:31:03;;;;;;;53.33;36.37;;;7.30;99.90;;;;;;4390632;32;20176;-60
2021/04/21 04:33:30;;;;;;;50.87;36.27;;;7.20;99.90;;;;;;4390574;32;20186;-63
2021/04/21 04:35:57;;;;;;;51.57;36.13;;;7.20;99.90;;;;;;4390142;32;20172;-62
2021/04/21 04:38:24;;;;;;;50.03;35.13;;;7.20;99.90;;;;;;4403241;32;20148;-60
2021/04/21 04:40:54;;;;;;;54.20;37.27;;;7.20;99.90;;;;;;4405490;32;20215;-60
2021/04/21 04:43:23;;;;;;;48.73;35.57;;;7.20;99.90;;;;;;4403866;32;20219;-60
2021/04/21 04:45:56;;;;;;;50.40;36.30;;;7.20;99.90;;;;;;4404941;32;20148;-60
2021/04/21 04:48:28;;;;;;;55.83;36.97;;;7.20;99.90;;;;;;4404569;32;20179;-60
2021/04/21 04:51:00;;;;;;;52.73;36.67;;;7.30;99.90;;;;;;4407437;32;20525;-59
2021/04/21 04:53:29;;;;;;;51.90;36.97;;;7.30;99.90;;;;;;4406694;32;20172;-61
2021/04/21 04:55:57;;;;;;;53.00;38.03;;;7.40;99.90;;;;;;4407967;32;20152;-61
2021/04/21 04:58:27;;;;;;;52.20;37.63;;;7.40;99.90;;;;;;4404535;32;20176;-62
2021/04/21 05:01:00;;;;;;;54.57;40.13;;;7.50;99.90;;;;;;4407572;32;20174;-61
2021/04/21 05:03:30;;;;;;;53.63;37.30;;;7.50;99.90;;;;;;4403915;32;20205;-62
2021/04/21 05:05:58;;;;;;;55.90;39.03;;;7.60;99.90;;;;;;4402627;32;20178;-60
2021/04/21 05:08:28;;;;;;;67.80;46.43;;;7.80;99.90;;;;;;4398023;32;20152;-61
2021/04/21 05:11:02;;;;;;;58.83;43.33;;;7.70;99.90;;;;;;4404544;32;20214;-59
2021/04/21 05:13:38;;;;;;;55.87;40.33;;;7.90;99.90;;;;;;4399796;32;20151;-64
2021/04/21 05:16:43;;;;;;;61.37;41.47;;;8.00;99.90;;;;;;4400389;32;20170;-62
2021/04/21 05:20:07;;;;;;;68.90;46.13;;;8.20;99.90;;;;;;4393432;32;20156;-62
2021/04/21 05:23:10;;;;;;;63.77;45.70;;;8.10;99.90;;;;;;4392220;32;20172;-62
2021/04/21 05:26:19;;;;;;;66.60;48.77;;;8.10;99.90;;;;;;4402480;32;20411;-66
2021/04/21 05:29:30;;;;;;;64.07;45.00;;;8.20;99.90;;;;;;4393266;32;20237;-62
2021/04/21 05:32:34;;;;;;;66.03;45.30;;;8.30;99.90;;;;;;4394777;32;20582;-63
2021/04/21 05:35:36;;;;;;;59.43;42.57;;;8.40;99.90;;;;;;4406108;32;20167;-61
2021/04/21 05:38:51;;;;;;;57.20;41.83;;;8.50;99.90;;;;;;4408304;32;20181;-61
2021/04/21 05:41:55;;;;;;;66.70;42.97;;;8.90;99.90;;;;;;4403928;32;20177;-61
2021/04/21 05:45:03;;;;;;;65.67;44.67;;;9.00;99.90;;;;;;4397419;32;20171;-61
2021/04/21 05:48:24;;;;;;;62.90;43.03;;;9.10;99.90;;;;;;4398623;32;20215;-60
2021/04/21 05:51:26;;;;;;;55.60;39.27;;;9.60;99.90;;;;;;4358674;33;20228;-63
2021/04/21 05:54:29;;;;;;;50.00;37.90;;;10.70;98.30;;;;;;4357945;32;20252;-61
2021/04/21 05:57:18;;;;;;;54.20;36.90;;;11.20;96.40;;;;;;4353007;33;20172;-63
2021/04/21 06:00:15;;;;;;;56.63;38.73;;;11.50;95.80;;;;;;4356650;33;20228;-62
2021/04/21 06:02:46;;;;;;;54.30;38.90;;;11.40;95.30;;;;;;4357024;32;20192;-66
2021/04/21 06:05:14;;;;;;;52.10;38.83;;;10.90;96.40;;;;;;4356957;32;20280;-64
2021/04/21 06:07:40;;;;;;;59.40;41.37;;;10.20;97.60;;;;;;4357591;32;20193;-63
2021/04/21 06:10:22;;;;;;;58.33;42.23;;;10.30;98.10;;;;;;4357843;32;20176;-64
2021/04/21 06:12:51;;;;;;;55.33;41.10;;;10.40;98.10;;;;;;4357857;33;20231;-61
2021/04/21 06:15:23;;;;;;;59.93;42.83;;;10.30;98.20;;;;;;4357651;32;20211;-62
2021/04/21 06:17:54;;;;;;;57.83;41.80;;;10.40;97.70;;;;;;4357722;32;20740;-61
2021/04/21 06:20:30;;;;;;;56.23;39.83;;;10.20;98.10;;;;;;4357848;33;20309;-65
2021/04/21 06:23:04;;;;;;;50.97;37.20;;;10.50;97.90;;;;;;4356927;32;20249;-62
2021/04/21 06:25:30;;;;;;;51.47;36.00;;;10.40;97.40;;;;;;4355030;32;20223;-63
2021/04/21 06:28:08;;;;;;;49.73;36.07;;;10.60;97.10;;;;;;4386038;32;20187;-63
2021/04/21 06:30:36;;;;;;;52.67;37.63;;;10.80;96.60;;;;;;4394410;32;20198;-59
2021/04/21 06:33:06;;;;;;;53.90;38.27;;;10.90;96.70;;;;;;4393269;32;20180;-62
2021/04/21 06:35:33;;;;;;;47.13;36.20;;;11.30;95.70;;;;;;4398726;32;20190;-61
2021/04/21 06:38:01;;;;;;;51.50;37.13;;;11.50;95.00;;;;;;4401889;32;20188;-60
2021/04/21 06:40:29;;;;;;;50.57;36.67;;;11.30;95.30;;;;;;4395849;32;20189;-62
2021/04/21 06:42:57;;;;;;;46.40;34.00;;;11.00;95.90;;;;;;4396790;32;20166;-63
2021/04/21 06:45:25;;;;;;;50.53;37.30;;;11.00;95.50;;;;;;4393129;32;20184;-62
2021/04/21 06:47:52;;;;;;;48.47;36.07;;;10.90;96.00;;;;;;4398532;32;20156;-63
2021/04/21 06:50:25;;;;;;;52.43;37.10;;;11.60;95.10;;;;;;4393661;32;20575;-64
2021/04/21 06:52:52;;;;;;;48.80;36.17;;;11.50;94.10;;;;;;4396930;32;20166;-63
2021/04/21 06:55:19;;;;;;;50.97;37.27;;;11.70;94.30;;;;;;4397069;32;20508;-62
2021/04/21 06:57:46;;;;;;;47.60;36.40;;;11.60;94.10;;;;;;4400547;32;20300;-63
2021/04/21 07:00:14;;;;;;;49.17;37.93;;;11.20;94.80;;;;;;4402501;32;20165;-64
2021/04/21 07:02:43;;;;;;;49.23;34.93;;;11.00;94.90;;;;;;4396421;32;20613;-62
2021/04/21 07:05:31;;;;;;;47.83;34.10;;;11.20;94.80;;;;;;4396894;32;20165;-62
2021/04/21 07:08:02;;;;;;;47.27;32.10;;;11.90;94.20;;;;;;4397265;32;20167;-60
2021/04/21 07:10:29;;;;;;;45.13;32.90;;;12.20;93.00;;;;;;4395598;32;20202;-61
2021/04/21 07:12:57;;;;;;;44.27;31.87;;;12.40;92.10;;;;;;4396189;32;20159;-63
2021/04/21 07:15:24;;;;;;;42.23;31.97;;;12.40;91.60;;;;;;4395471;32;20226;-62
2021/04/21 07:17:51;;;;;;;42.47;29.20;;;12.70;91.70;;;;;;4400739;32;20163;-61
2021/04/21 07:20:32;;;;;;;36.50;27.40;;;13.10;90.30;;;;;;4389413;32;20164;-62
2021/04/21 07:22:59;;;;;;;34.87;26.20;;;13.80;89.00;;;;;;4395909;32;20174;-62
2021/04/21 07:25:26;;;;;;;38.70;25.53;;;15.70;83.20;;;;;;4396360;32;20190;-64
2021/04/21 07:27:54;;;;;;;30.30;21.80;;;19.00;69.70;;;;;;4396839;32;20180;-62
2021/04/21 07:30:26;;;;;;;32.10;23.70;;;22.00;61.20;;;;;;4396874;32;20160;-59
2021/04/21 07:32:57;;;;;;;33.43;23.43;;;23.80;52.60;;;;;;4397518;32;20212;-64
2021/04/21 07:35:27;;;;;;;34.93;23.90;;;24.60;49.80;;;;;;4397435;32;20213;-64
2021/04/21 07:37:58;;;;;;;30.80;22.83;;;24.00;48.00;;;;;;4396459;32;20207;-65
2021/04/21 07:40:31;;;;;;;31.13;21.63;;;24.50;45.00;;;;;;4395407;32;20217;-63
2021/04/21 07:43:10;;;;;;;32.20;21.43;;;24.00;49.20;;;;;;4396746;32;20188;-66
2021/04/21 07:45:46;;;;;;;29.37;20.47;;;27.00;44.70;;;;;;4394012;32;20588;-64
2021/04/21 07:48:43;;;;;;;30.53;21.17;;;30.20;38.80;;;;;;4395312;32;20160;-63
2021/04/21 07:51:32;;;;;;;26.97;19.70;;;29.00;37.70;;;;;;4337698;32;20161;-62
2021/04/21 07:54:02;;;;;;;29.13;19.40;;;30.60;36.40;;;;;;4335564;33;20212;-61
2021/04/21 07:56:36;;;;;;;25.30;18.50;;;31.40;34.70;;;;;;4338942;32;20208;-65
2021/04/21 07:59:18;;;;;;;27.00;20.60;;;32.80;33.60;;;;;;4338681;32;20395;-61
2021/04/21 08:02:09;;;;;;;29.67;19.97;;;29.80;33.20;;;;;;4334232;33;20203;-64
2021/04/21 08:04:46;;;;;;;26.93;20.07;;;29.20;36.70;;;;;;4338596;33;20169;-66
2021/04/21 08:07:12;;;;;;;27.10;20.40;;;31.80;34.40;;;;;;4333013;33;20232;-63
2021/04/21 08:09:50;;;;;;;30.77;22.13;;;32.60;33.10;;;;;;4333822;33;20311;-62
2021/04/21 08:12:17;;;;;;;29.40;20.50;;;32.80;33.10;;;;;;4337449;33;20549;-63
2021/04/21 08:14:46;;;;;;;27.13;19.97;;;32.40;32.20;;;;;;4331653;33;20251;-64
2021/04/21 08:17:15;;;;;;;25.70;18.80;;;29.00;35.30;;;;;;4335276;33;20239;-66
2021/04/21 08:19:46;;;;;;;35.90;24.03;;;30.90;34.20;;;;;;4336500;33;20572;-65
2021/04/21 08:22:21;;;;;;;32.53;24.27;;;26.40;38.70;;;;;;4338813;33;20185;-63
2021/04/21 08:24:48;;;;;;;31.30;23.37;;;26.10;38.00;;;;;;4338612;32;20216;-63
2021/04/21 08:27:16;;;;;;;28.23;21.97;;;24.80;44.10;;;;;;4378110;32;20561;-63
2021/04/21 08:29:44;;;;;;;29.33;21.63;;;27.90;38.20;;;;;;4396207;32;20164;-61
2021/04/21 08:32:11;;;;;;;23.70;20.00;;;28.10;39.10;;;;;;4403384;32;20155;-65
2021/04/21 08:34:38;;;;;;;28.77;20.33;;;27.90;38.10;;;;;;4402313;32;20687;-64
2021/04/21 08:37:05;;;;;;;24.00;19.23;;;30.50;36.70;;;;;;4400405;32;20270;-65
2021/04/21 08:39:32;;;;;;;25.93;20.13;;;31.90;35.00;;;;;;4400246;32;20313;-62
2021/04/21 08:42:01;;;;;;;26.20;18.97;;;30.50;35.10;;;;;;4403889;32;20183;-62
2021/04/21 08:44:32;;;;;;;25.40;18.07;;;29.60;35.20;;;;;;4402996;32;20266;-61
2021/04/21 08:47:00;;;;;;;26.33;17.90;;;24.60;41.10;;;;;;4405791;32;20194;-64
2021/04/21 08:49:29;;;;;;;23.87;17.97;;;24.90;43.30;;;;;;4415090;32;20160;-62
2021/04/21 08:51:59;;;;;;;23.83;18.13;;;24.90;42.50;;;;;;4402994;32;20160;-62
2021/04/21 08:54:29;;;;;;;24.50;18.17;;;25.60;41.70;;;;;;4396458;32;20204;-61
2021/04/21 08:56:58;;;;;;;24.07;18.17;;;26.30;39.90;;;;;;4399804;32;20211;-64
2021/04/21 08:59:25;;;;;;;26.07;18.37;;;29.80;37.80;;;;;;4403464;32;20164;-64
2021/04/21 09:01:51;;;;;;;31.43;18.13;;;31.50;35.10;;;;;;4406575;32;20252;-62
2021/04/21 09:04:18;;;;;;;25.53;19.73;;;29.90;36.50;;;;;;4403760;32;20193;-62
2021/04/21 09:06:46;;;;;;;27.97;19.80;;;28.40;37.40;;;;;;4399565;32;20207;-60
2021/04/21 09:09:14;;;;;;;27.77;19.20;;;21.50;49.40;;;;;;4399141;32;20572;-62
2021/04/21 09:11:41;;;;;;;30.47;19.43;;;23.30;49.40;;;;;;4404022;32;20278;-62
2021/04/21 09:14:07;;;;;;;27.30;19.50;;;25.60;44.90;;;;;;4396924;32;20221;-61
2021/04/21 09:16:34;;;;;;;27.70;20.10;;;24.30;45.80;;;;;;4404201;32;20242;-62
2021/04/21 09:19:09;;;;;;;25.27;17.27;;;19.30;54.40;;;;;;4397110;32;20159;-64
2021/04/21 09:21:35;;;;;;;26.00;16.73;;;18.70;59.80;;;;;;4398505;32;20175;-63
2021/04/21 09:24:02;;;;;;;25.23;16.23;;;17.30;65.80;;;;;;4400519;32;20160;-64
2021/04/21 09:26:34;;;;;;;23.90;16.70;;;17.30;66.60;;;;;;4399029;32;20506;-66
2021/04/21 09:29:00;;;;;;;25.10;16.93;;;17.00;69.20;;;;;;4397828;32;20171;-62
2021/04/21 09:31:29;;;;;;;27.17;16.97;;;16.90;70.50;;;;;;4400748;32;20191;-62
2021/04/21 09:34:09;;;;;;;19.80;15.37;;;16.90;70.20;;;;;;4397086;32;20191;-64
2021/04/21 09:36:37;;;;;;;27.27;17.27;;;16.70;70.60;;;;;;4398101;32;20215;-63
2021/04/21 09:39:15;;;;;;;22.93;14.67;;;15.90;71.80;;;;;;4402299;32;20197;-64
2021/04/21 09:41:42;;;;;;;23.60;16.93;;;16.00;72.70;;;;;;4396950;32;20178;-61
2021/04/21 09:44:16;;;;;;;25.53;18.03;;;16.30;72.30;;;;;;4399877;32;20214;-67
2021/04/21 09:46:44;;;;;;;27.17;17.67;;;16.60;71.70;;;;;;4395645;32;20163;-63
2021/04/21 09:49:33;;;;;;;27.13;18.23;;;16.90;71.60;;;;;;4397041;32;20168;-62
2021/04/21 09:52:02;;;;;;;33.37;21.57;;;16.80;70.40;;;;;;4399890;32;20203;-60
2021/04/21 09:54:36;;;;;;;31.17;20.20;;;16.30;73.00;;;;;;4399597;32;20588;-64
2021/04/21 09:57:10;;;;;;;32.80;21.03;;;16.10;74.20;;;;;;4397879;32;20567;-60
2021/04/21 09:59:37;;;;;;;32.43;21.23;;;16.40;74.70;;;;;;4395123;32;20199;-61
2021/04/21 10:02:24;;;;;;;37.57;23.00;;;17.00;72.20;;;;;;4397683;32;20156;-61
2021/04/21 10:04:56;;;;;;;32.13;21.13;;;16.40;74.20;;;;;;4396793;32;20190;-59
2021/04/21 10:07:23;;;;;;;34.23;22.60;;;16.40;74.60;;;;;;4399645;32;20160;-61
2021/04/21 10:09:57;;;;;;;35.97;22.73;;;15.60;77.30;;;;;;4397408;32;20154;-61
2021/04/21 10:12:25;;;;;;;34.70;24.67;;;15.60;78.00;;;;;;4398312;32;20167;-59
2021/04/21 10:15:06;;;;;;;35.50;23.17;;;15.40;79.00;;;;;;4401470;32;20198;-60
2021/04/21 10:17:36;;;;;;;33.73;23.50;;;15.30;79.90;;;;;;4395428;32;20152;-63
2021/04/21 10:20:05;;;;;;;37.23;23.50;;;15.50;79.50;;;;;;4395918;32;20203;-60
2021/04/21 10:22:31;;;;;;;42.03;23.53;;;15.60;79.00;;;;;;4395204;32;20215;-62
2021/04/21 10:24:59;;;;;;;37.37;22.10;;;15.50;79.60;;;;;;4396819;32;20175;-62
2021/04/21 10:27:26;;;;;;;30.13;21.40;;;15.50;79.00;;;;;;4395838;32;20226;-64
2021/04/21 10:29:53;;;;;;;33.13;22.20;;;15.50;78.80;;;;;;4396438;32;20190;-62
2021/04/21 10:32:20;;;;;;;31.83;21.93;;;15.40;79.10;;;;;;4398059;32;20160;-64
2021/04/21 10:34:49;;;;;;;30.50;20.23;;;15.30;79.90;;;;;;4402419;32;20561;-63
2021/04/21 10:37:17;;;;;;;27.07;20.03;;;15.40;79.60;;;;;;4399719;32;20202;-61
2021/04/21 10:40:00;;;;;;;34.83;19.90;;;15.10;80.40;;;;;;4398807;32;20186;-60
2021/04/21 10:42:27;;;;;;;27.97;18.77;;;15.20;80.20;;;;;;4395728;32;20156;-63
2021/04/21 10:45:13;;;;;;;32.07;18.83;;;15.40;80.30;;;;;;4396625;32;20222;-63
2021/04/21 10:47:45;;;;;;;25.03;15.83;;;15.90;77.40;;;;;;4394914;32;20179;-61
2021/04/21 10:50:13;;;;;;;21.33;15.87;;;15.80;76.50;;;;;;4394877;32;20160;-63
2021/04/21 10:52:41;;;;;;;25.77;15.60;;;15.30;77.60;;;;;;4395316;32;20572;-65
2021/04/21 10:55:40;;;;;;;25.00;14.63;;;15.50;77.10;;;;;;4394484;32;20205;-61
2021/04/21 10:58:10;;;;;;;24.13;14.80;;;15.50;77.20;;;;;;4397583;32;20237;-63
2021/04/21 11:00:39;;;;;;;21.53;13.77;;;15.10;77.30;;;;;;4395969;32;20241;-62
2021/04/21 11:03:08;;;;;;;17.47;12.20;;;14.70;79.00;;;;;;4404525;32;20152;-61
2021/04/21 11:05:49;;;;;;;19.40;13.23;;;14.90;78.40;;;;;;4399472;32;20349;-62
2021/04/21 11:08:20;;;;;;;17.83;12.53;;;15.00;77.90;;;;;;4398237;32;20218;-63
2021/04/21 11:10:59;;;;;;;16.40;11.40;;;15.30;76.00;;;;;;4395999;32;20481;-62
2021/04/21 11:13:46;;;;;;;18.90;12.87;;;15.10;76.50;;;;;;4395784;32;20215;-62
2021/04/21 11:16:50;;;;;;;15.97;10.87;;;15.00;75.70;;;;;;4398195;32;20185;-62
2021/04/21 11:19:31;;;;;;;16.10;10.27;;;14.80;76.50;;;;;;4401576;32;20182;-61
2021/04/21 11:22:36;;;;;;;16.80;10.10;;;14.90;76.70;;;;;;4395153;32;20152;-63
2021/04/21 11:25:24;;;;;;;16.27;10.87;;;15.30;75.50;;;;;;4397743;32;20213;-63
2021/04/21 11:27:51;;;;;;;18.77;11.23;;;15.50;73.50;;;;;;4395628;32;20487;-62
2021/04/21 11:30:55;;;;;;;15.50;11.83;;;15.80;73.30;;;;;;4401898;32;20216;-65
2021/04/21 11:33:56;;;;;;;17.83;11.10;;;15.70;73.10;;;;;;4401190;32;20143;-64
2021/04/21 11:36:50;;;;;;;15.30;8.67;;;15.60;72.10;;;;;;4395039;32;20174;-65
2021/04/21 11:39:49;;;;;;;14.53;9.30;;;15.70;71.50;;;;;;4400162;32;20194;-64
2021/04/21 11:42:18;;;;;;;10.27;8.17;;;15.70;72.00;;;;;;4395222;32;20262;-61
2021/04/21 11:45:02;;;;;;;13.87;8.67;;;15.70;71.40;;;;;;4393819;32;20160;-60
2021/04/21 11:47:34;;;;;;;15.17;8.10;;;15.90;70.70;;;;;;4393081;32;20207;-62
2021/04/21 11:50:11;;;;;;;15.80;9.73;;;15.60;71.30;;;;;;4393440;32;20530;-61
2021/04/21 11:52:57;;;;;;;10.43;5.90;;;15.70;70.80;;;;;;4397620;32;20183;-64
2021/04/21 11:55:35;;;;;;;4.73;3.87;;;15.60;71.20;;;;;;4393659;32;20176;-60
2021/04/21 11:58:05;;;;;;;7.60;4.50;;;15.40;72.10;;;;;;4397234;32;20246;-60
2021/04/21 12:00:35;;;;;;;8.10;4.10;;;15.40;72.70;;;;;;4396086;32;20200;-61
2021/04/21 12:03:03;;;;;;;6.67;3.93;;;15.50;71.80;;;;;;4391162;32;20176;-63
2021/04/21 12:05:34;;;;;;;9.07;3.40;;;15.40;71.60;;;;;;4394806;32;20296;-64
2021/04/21 12:08:03;;;;;;;6.17;4.03;;;15.10;72.90;;;;;;4399041;32;20160;-63
2021/04/21 12:10:33;;;;;;;7.23;3.40;;;14.60;73.10;;;;;;4402642;32;20179;-62
2021/04/21 12:13:27;;;;;;;7.63;3.77;;;14.30;73.70;;;;;;4400499;32;20599;-62
2021/04/21 12:16:00;;;;;;;6.73;3.73;;;14.20;74.20;;;;;;4394354;32;20226;-64
2021/04/21 12:18:45;;;;;;;7.43;3.23;;;14.30;73.50;;;;;;4394453;32;20177;-61
2021/04/21 12:21:32;;;;;;;5.73;2.73;;;14.40;73.80;;;;;;4402339;32;20151;-62
2021/04/21 12:24:01;;;;;;;10.80;3.57;;;14.60;73.90;;;;;;4400197;32;20238;-62
2021/04/21 12:26:29;;;;;;;10.10;3.13;;;14.60;71.40;;;;;;4398754;32;20161;-65
2021/04/21 12:28:59;;;;;;;8.17;2.90;;;14.30;72.90;;;;;;4401078;32;20159;-62
2021/04/21 12:31:27;;;;;;;11.93;3.33;;;14.30;72.80;;;;;;4401649;32;20186;-63
2021/04/21 12:33:55;;;;;;;8.70;2.67;;;14.30;72.20;;;;;;4402757;32;20183;-62
2021/04/21 12:36:24;;;;;;;9.60;3.07;;;14.40;71.60;;;;;;4403976;32;20223;-61
2021/04/21 12:39:00;;;;;;;9.33;3.03;;;14.30;72.00;;;;;;4404078;32;20204;-62
2021/04/21 12:41:27;;;;;;;8.20;3.20;;;14.30;71.80;;;;;;4404064;32;20186;-65
2021/04/21 12:43:54;;;;;;;7.83;2.80;;;14.20;72.70;;;;;;4397990;32;20155;-59
2021/04/21 12:46:24;;;;;;;9.40;3.23;;;14.10;73.00;;;;;;4403104;32;20205;-61
2021/04/21 12:48:53;;;;;;;20.17;3.50;;;14.10;73.20;;;;;;4403030;32;20457;-62
2021/04/21 12:51:23;;;;;;;12.97;4.37;;;13.90;73.40;;;;;;4397415;32;20260;-63
2021/04/21 12:53:50;;;;;;;7.03;2.97;;;14.20;74.70;;;;;;4404472;32;20262;-63
2021/04/21 12:56:18;;;;;;;14.97;3.47;;;14.50;71.60;;;;;;4409336;32;20265;-63
2021/04/21 12:58:47;;;;;;;11.50;3.37;;;14.30;72.10;;;;;;4392776;32;20672;-60
2021/04/21 13:01:20;;;;;;;11.30;3.00;;;14.30;72.80;;;;;;4356439;33;20161;-63
2021/04/21 13:03:59;;;;;;;8.40;3.10;;;14.40;72.50;;;;;;4352825;33;20609;-59
2021/04/21 13:06:36;;;;;;;12.43;2.87;;;14.60;71.50;;;;;;4355226;33;20172;-61